createdAt,value
2022-12-26T00:00:20.221Z,5.58
2022-12-26T00:02:46.852Z,5.57
2022-12-26T00:05:13.402Z,5.55
2022-12-26T00:07:39.886Z,5.53
2022-12-26T00:10:07.107Z,5.49
2022-12-26T00:12:34.105Z,5.47
2022-12-26T00:15:00.603Z,5.42
2022-12-26T00:17:27.099Z,5.39
2022-12-26T00:19:53.568Z,5.34
2022-12-26T00:22:20.073Z,5.31
2022-12-26T00:24:47.483Z,5.26
2022-12-26T00:27:13.927Z,5.24
2022-12-26T00:29:40.403Z,5.19
2022-12-26T00:32:06.902Z,5.12
2022-12-26T00:34:33.353Z,5.07
2022-12-26T00:36:59.919Z,5.05
2022-12-26T00:39:26.387Z,5.02
2022-12-26T00:41:52.858Z,5.02
2022-12-26T00:44:19.364Z,4.98
2022-12-26T00:46:45.900Z,4.96
2022-12-26T00:49:12.431Z,4.92
2022-12-26T00:51:38.960Z,4.90
2022-12-26T00:54:05.459Z,4.86
2022-12-26T00:56:31.957Z,4.90
2022-12-26T00:58:58.430Z,4.91
2022-12-26T01:01:25.066Z,4.91
2022-12-26T01:03:52.318Z,4.92
2022-12-26T01:06:19.005Z,4.93
2022-12-26T01:08:45.568Z,4.94
2022-12-26T01:11:15.029Z,5.00
2022-12-26T01:13:42.606Z,4.99
2022-12-26T01:16:09.528Z,4.93
2022-12-26T01:18:36.179Z,4.85
2022-12-26T01:21:07.381Z,4.76
2022-12-26T01:23:33.980Z,4.69
2022-12-26T01:26:17.794Z,4.64
2022-12-26T01:28:48.391Z,4.73
2022-12-26T01:31:15.327Z,4.79
2022-12-26T01:33:41.892Z,4.85
2022-12-26T01:36:08.704Z,4.84
2022-12-26T01:38:35.586Z,4.82
2022-12-26T01:41:16.971Z,4.80
2022-12-26T01:43:52.561Z,4.80
2022-12-26T01:46:27.433Z,4.84
2022-12-26T01:48:56.446Z,4.89
2022-12-26T01:51:26.756Z,4.93
2022-12-26T01:54:40.248Z,4.96
2022-12-26T01:56:46.973Z,4.97
2022-12-26T01:59:21.922Z,4.94
2022-12-26T02:01:50.959Z,4.96
2022-12-26T02:04:43.827Z,4.93
2022-12-26T02:07:10.540Z,4.82
2022-12-26T02:09:37.823Z,4.67
2022-12-26T02:12:37.490Z,4.64
2022-12-26T02:14:58.363Z,4.65
2022-12-26T02:17:28.483Z,4.60
2022-12-26T02:20:17.508Z,4.60
2022-12-26T02:23:02.323Z,4.59
2022-12-26T02:26:06.439Z,4.57
2022-12-26T02:28:57.878Z,4.57
2022-12-26T02:31:30.399Z,4.56
2022-12-26T02:34:15.382Z,4.51
2022-12-26T02:37:02.800Z,4.51
2022-12-26T02:39:56.764Z,4.55
2022-12-26T02:43:03.618Z,4.64
2022-12-26T02:45:58.733Z,4.65
2022-12-26T02:48:40.052Z,4.64
2022-12-26T02:51:54.457Z,4.63
2022-12-26T02:54:48.480Z,4.64
2022-12-26T02:57:40.791Z,4.63
2022-12-26T03:00:34.575Z,4.58
2022-12-26T03:03:41.260Z,4.55
2022-12-26T03:06:43.618Z,4.57
2022-12-26T03:09:33.995Z,4.57
2022-12-26T03:12:26.784Z,4.58
2022-12-26T03:15:04.516Z,4.60
2022-12-26T03:17:40.661Z,4.57
2022-12-26T03:20:29.618Z,4.59
2022-12-26T03:23:00.206Z,4.57
2022-12-26T03:25:57.767Z,4.46
2022-12-26T03:28:25.516Z,4.26
2022-12-26T03:30:53.483Z,4.10
2022-12-26T03:33:44.743Z,3.98
2022-12-26T03:36:32.661Z,3.87
2022-12-26T03:39:15.241Z,3.84
2022-12-26T03:42:28.104Z,3.81
2022-12-26T03:45:27.157Z,3.81
2022-12-26T03:48:28.316Z,3.87
2022-12-26T03:51:29.809Z,3.89
2022-12-26T03:54:27.876Z,3.90
2022-12-26T03:57:18.957Z,3.91
2022-12-26T04:00:14.044Z,3.92
2022-12-26T04:03:03.547Z,3.94
2022-12-26T04:05:50.201Z,4.10
2022-12-26T04:08:51.205Z,4.32
2022-12-26T04:11:39.293Z,4.53
2022-12-26T04:14:37.404Z,4.69
2022-12-26T04:17:33.582Z,4.60
2022-12-26T04:20:38.333Z,4.42
2022-12-26T04:23:33.660Z,4.38
2022-12-26T04:26:30.910Z,4.44
2022-12-26T04:29:16.446Z,4.55
2022-12-26T04:32:26.651Z,4.70
2022-12-26T04:35:27.632Z,4.80
2022-12-26T04:38:15.807Z,4.86
2022-12-26T04:41:08.031Z,4.92
2022-12-26T04:43:54.626Z,5.03
2022-12-26T04:46:23.531Z,5.12
2022-12-26T04:49:10.347Z,5.24
2022-12-26T04:51:36.926Z,5.38
2022-12-26T04:54:04.629Z,5.42
2022-12-26T04:56:31.541Z,5.50
2022-12-26T04:58:58.092Z,5.57
2022-12-26T05:01:43.409Z,5.61
2022-12-26T05:04:36.631Z,5.65
2022-12-26T05:07:24.241Z,5.70
2022-12-26T05:09:53.516Z,5.74
2022-12-26T05:12:20.786Z,5.59
2022-12-26T05:14:47.429Z,5.53
2022-12-26T05:17:32.545Z,5.60
2022-12-26T05:20:17.836Z,5.75
2022-12-26T05:23:04.187Z,5.82
2022-12-26T05:25:51.677Z,5.89
2022-12-26T05:28:37.161Z,5.97
2022-12-26T05:31:04.951Z,6.04
2022-12-26T05:33:50.205Z,5.99
2022-12-26T05:36:18.767Z,5.98
2022-12-26T05:38:45.272Z,6.08
2022-12-26T05:41:11.873Z,6.10
2022-12-26T05:43:38.321Z,6.19
2022-12-26T05:46:05.052Z,6.26
2022-12-26T05:48:31.616Z,6.35
2022-12-26T05:51:02.787Z,6.43
2022-12-26T05:53:31.220Z,6.50
2022-12-26T05:56:11.234Z,6.63
2022-12-26T05:58:37.808Z,6.70
2022-12-26T06:01:13.119Z,6.81
2022-12-26T06:03:43.265Z,6.86
2022-12-26T06:06:11.016Z,6.93
2022-12-26T06:08:37.655Z,6.98
2022-12-26T06:11:09.825Z,7.01
2022-12-26T06:13:36.927Z,7.04
2022-12-26T06:16:07.849Z,7.07
2022-12-26T06:18:34.859Z,7.11
2022-12-26T06:21:08.859Z,7.15
2022-12-26T06:23:36.312Z,7.25
2022-12-26T06:26:04.106Z,7.30
2022-12-26T06:28:31.182Z,7.31
2022-12-26T06:31:11.470Z,7.34
2022-12-26T06:33:38.284Z,7.43
2022-12-26T06:36:13.461Z,7.55
2022-12-26T06:38:40.213Z,7.70
2022-12-26T06:41:12.027Z,7.85
2022-12-26T06:43:38.981Z,7.90
2022-12-26T06:46:07.714Z,7.97
2022-12-26T06:48:39.390Z,7.98
2022-12-26T06:51:14.933Z,7.98
2022-12-26T06:53:41.583Z,7.96
2022-12-26T06:56:15.918Z,7.94
2022-12-26T06:58:43.343Z,7.96
2022-12-26T07:01:15.968Z,7.91
2022-12-26T07:03:50.783Z,7.88
2022-12-26T07:06:27.140Z,7.85
2022-12-26T07:08:54.615Z,7.82
2022-12-26T07:11:23.872Z,7.82
2022-12-26T07:13:51.015Z,7.84
2022-12-26T07:16:17.839Z,7.85
2022-12-26T07:18:44.349Z,7.85
2022-12-26T07:21:14.013Z,7.85
2022-12-26T07:23:41.081Z,7.84
2022-12-26T07:26:08.560Z,7.86
2022-12-26T07:28:35.567Z,7.89
2022-12-26T07:31:02.417Z,7.92
2022-12-26T07:33:29.723Z,7.93
2022-12-26T07:36:07.705Z,7.94
2022-12-26T07:38:34.176Z,7.95
2022-12-26T07:41:24.622Z,7.95
2022-12-26T07:43:51.760Z,7.91
2022-12-26T07:46:19.060Z,7.85
2022-12-26T07:48:45.701Z,7.73
2022-12-26T07:51:12.307Z,7.68
2022-12-26T07:53:38.987Z,7.63
2022-12-26T07:56:06.064Z,7.55
2022-12-26T07:58:32.607Z,7.51
2022-12-26T08:01:03.670Z,7.47
2022-12-26T08:03:30.515Z,7.44
2022-12-26T08:05:57.645Z,7.39
2022-12-26T08:08:24.359Z,7.35
2022-12-26T08:10:59.970Z,7.35
2022-12-26T08:13:28.850Z,7.34
2022-12-26T08:15:55.941Z,7.35
2022-12-26T08:18:22.576Z,7.35
2022-12-26T08:20:49.665Z,7.39
2022-12-26T08:23:16.424Z,7.40
2022-12-26T08:25:42.991Z,7.42
2022-12-26T08:28:09.876Z,7.22
2022-12-26T08:30:39.359Z,7.11
2022-12-26T08:33:05.829Z,7.04
2022-12-26T08:35:34.374Z,6.98
2022-12-26T08:38:01.462Z,6.92
2022-12-26T08:40:42.608Z,6.82
2022-12-26T08:43:31.049Z,6.71
2022-12-26T08:46:05.668Z,6.67
2022-12-26T08:48:32.842Z,6.57
2022-12-26T08:51:04.660Z,6.51
2022-12-26T08:53:33.006Z,6.48
2022-12-26T08:55:59.903Z,6.47
2022-12-26T08:58:27.668Z,6.46
2022-12-26T09:01:06.738Z,6.40
2022-12-26T09:03:33.462Z,6.41
2022-12-26T09:06:05.595Z,6.42
2022-12-26T09:08:34.905Z,6.45
2022-12-26T09:11:06.139Z,6.46
2022-12-26T09:13:33.671Z,6.47
2022-12-26T09:16:09.372Z,6.49
2022-12-26T09:18:36.154Z,6.49
2022-12-26T09:21:04.515Z,6.52
2022-12-26T09:23:31.744Z,6.52
2022-12-26T09:26:28.719Z,6.54
2022-12-26T09:28:55.658Z,6.53
2022-12-26T09:31:25.924Z,6.54
2022-12-26T09:33:53.827Z,6.52
2022-12-26T09:36:23.957Z,6.56
2022-12-26T09:38:50.932Z,6.57
2022-12-26T09:41:39.021Z,6.57
2022-12-26T09:44:27.196Z,6.61
2022-12-26T09:47:18.056Z,6.65
2022-12-26T09:50:12.142Z,6.67
2022-12-26T09:53:03.069Z,6.66
2022-12-26T09:55:37.005Z,6.69
2022-12-26T09:58:29.407Z,6.69
2022-12-26T10:01:14.377Z,6.75
2022-12-26T10:03:44.692Z,6.81
2022-12-26T10:06:20.719Z,6.86
2022-12-26T10:09:11.476Z,7.08
2022-12-26T10:11:49.889Z,7.19
2022-12-26T10:14:46.661Z,7.33
2022-12-26T10:20:43.997Z,7.47
2022-12-26T10:23:30.020Z,7.44
2022-12-26T10:26:22.199Z,7.58
2022-12-26T10:29:09.790Z,7.63
2022-12-26T10:31:49.212Z,7.78
2022-12-26T10:34:25.799Z,7.80
2022-12-26T10:37:01.521Z,7.90
2022-12-26T10:39:30.391Z,7.96
2022-12-26T10:42:03.245Z,8.05
2022-12-26T10:44:29.755Z,8.11
2022-12-26T10:47:14.984Z,8.16
2022-12-26T10:49:45.074Z,8.24
2022-12-26T10:52:12.423Z,8.30
2022-12-26T10:54:39.584Z,8.32
2022-12-26T10:57:08.490Z,8.36
2022-12-26T10:59:48.262Z,8.37
2022-12-26T11:02:32.146Z,8.43
2022-12-26T11:05:48.457Z,8.46
2022-12-26T11:08:20.253Z,8.49
2022-12-26T11:11:03.053Z,8.51
2022-12-26T11:13:32.506Z,8.52
2022-12-26T11:15:59.428Z,8.53
2022-12-26T11:18:48.520Z,8.53
2022-12-26T11:21:17.865Z,8.56
2022-12-26T11:23:45.925Z,8.57
2022-12-26T11:26:32.778Z,8.59
2022-12-26T11:29:13.136Z,8.59
2022-12-26T11:31:43.051Z,8.56
2022-12-26T11:34:15.664Z,8.57
2022-12-26T11:36:48.334Z,8.57
2022-12-26T11:39:27.082Z,8.58
2022-12-26T11:41:54.272Z,8.58
2022-12-26T11:44:29.100Z,8.57
2022-12-26T11:47:11.939Z,8.58
2022-12-26T11:49:41.552Z,8.57
2022-12-26T11:52:37.586Z,8.57
2022-12-26T11:55:37.236Z,8.58
2022-12-26T11:58:06.930Z,8.58
2022-12-26T12:00:38.400Z,8.59
2022-12-26T12:03:13.145Z,8.57
2022-12-26T12:06:03.340Z,8.57
2022-12-26T12:08:32.595Z,8.60
2022-12-26T12:11:01.850Z,8.60
2022-12-26T12:13:39.323Z,8.60
2022-12-26T12:16:05.756Z,8.59
2022-12-26T12:18:55.087Z,8.56
2022-12-26T12:21:43.348Z,8.56
2022-12-26T12:24:12.815Z,8.55
2022-12-26T12:26:57.585Z,8.56
2022-12-26T12:29:40.584Z,8.55
2022-12-26T12:32:32.783Z,8.53
2022-12-26T12:35:20.289Z,8.51
2022-12-26T12:38:06.868Z,8.48
2022-12-26T12:40:58.232Z,8.47
2022-12-26T12:43:34.253Z,8.47
2022-12-26T12:46:15.827Z,8.45
2022-12-26T12:48:55.030Z,8.42
2022-12-26T12:51:45.963Z,8.39
2022-12-26T12:54:30.589Z,8.35
2022-12-26T12:57:26.213Z,8.31
2022-12-26T13:00:21.638Z,8.29
2022-12-26T13:03:00.064Z,8.27
2022-12-26T13:05:44.047Z,8.26
2022-12-26T13:08:39.195Z,8.25
2022-12-26T13:11:28.331Z,8.25
2022-12-26T13:13:57.923Z,8.23
2022-12-26T13:16:28.932Z,8.24
2022-12-26T13:19:01.914Z,8.22
2022-12-26T13:21:32.577Z,8.21
2022-12-26T13:24:24.955Z,8.21
2022-12-26T13:26:59.211Z,8.20
2022-12-26T13:29:31.674Z,8.19
2022-12-26T13:31:59.711Z,8.19
2022-12-26T13:34:26.816Z,8.20
2022-12-26T13:36:56.457Z,8.20
2022-12-26T13:39:22.845Z,8.19
2022-12-26T13:42:12.221Z,8.20
2022-12-26T13:44:39.115Z,8.17
2022-12-26T13:47:06.042Z,8.17
2022-12-26T13:49:38.729Z,8.18
2022-12-26T13:52:11.417Z,8.17
2022-12-26T13:54:46.815Z,8.16
2022-12-26T13:57:31.465Z,8.15
2022-12-26T14:00:00.992Z,8.15
2022-12-26T14:03:16.697Z,8.14
2022-12-26T14:05:48.678Z,8.14
2022-12-26T14:08:43.440Z,8.15
2022-12-26T14:11:45.402Z,8.14
2022-12-26T14:14:55.797Z,8.15
2022-12-26T14:17:38.981Z,8.14
2022-12-26T14:20:23.639Z,8.14
2022-12-26T14:23:21.244Z,8.12
2022-12-26T14:26:21.230Z,8.11
2022-12-26T14:29:05.170Z,8.08
2022-12-26T14:32:10.911Z,8.08
2022-12-26T14:34:43.218Z,8.08
2022-12-26T14:37:18.151Z,8.07
2022-12-26T14:39:55.869Z,8.06
2022-12-26T14:42:44.135Z,8.02
2022-12-26T14:45:40.036Z,8.00
2022-12-26T14:48:15.772Z,7.98
2022-12-26T14:50:46.599Z,7.98
2022-12-26T14:53:27.270Z,7.95
2022-12-26T14:56:10.229Z,7.94
2022-12-26T14:58:53.043Z,7.92
2022-12-26T15:01:22.348Z,7.89
2022-12-26T15:04:10.001Z,7.89
2022-12-26T15:06:39.483Z,7.88
2022-12-26T15:09:27.440Z,7.88
2022-12-26T15:12:27.417Z,7.88
2022-12-26T15:15:22.755Z,7.86
2022-12-26T15:18:10.666Z,7.84
2022-12-26T15:21:09.158Z,7.86
2022-12-26T15:24:06.179Z,7.87
2022-12-26T15:27:00.748Z,7.84
2022-12-26T15:29:47.233Z,7.79
2022-12-26T15:32:35.163Z,7.79
2022-12-26T15:35:23.175Z,7.77
2022-12-26T15:37:57.680Z,7.79
2022-12-26T15:40:37.917Z,7.76
2022-12-26T15:43:39.035Z,7.73
2022-12-26T15:46:18.096Z,7.70
2022-12-26T15:49:00.160Z,7.72
2022-12-26T15:51:35.473Z,7.73
2022-12-26T15:54:20.383Z,7.74
2022-12-26T15:56:56.751Z,7.74
2022-12-26T15:59:48.683Z,7.69
2022-12-26T16:02:34.850Z,7.64
2022-12-26T16:05:10.503Z,7.63
2022-12-26T16:07:51.146Z,7.60
2022-12-26T16:10:35.116Z,7.61
2022-12-26T16:13:23.481Z,7.67
2022-12-26T16:15:57.901Z,7.79
2022-12-26T16:18:30.928Z,7.83
2022-12-26T16:21:20.119Z,7.79
2022-12-26T16:23:49.086Z,7.77
2022-12-26T16:26:25.136Z,7.70
2022-12-26T16:28:53.134Z,7.63
2022-12-26T16:31:29.046Z,7.58
2022-12-26T16:33:58.764Z,7.58
2022-12-26T16:36:30.013Z,7.57
2022-12-26T16:38:56.777Z,7.55
2022-12-26T16:41:26.303Z,7.54
2022-12-26T16:43:55.164Z,7.52
2022-12-26T16:46:26.483Z,7.51
2022-12-26T16:49:01.891Z,7.49
2022-12-26T16:51:34.161Z,7.49
2022-12-26T16:54:22.160Z,7.51
2022-12-26T16:57:01.951Z,7.49
2022-12-26T16:59:37.415Z,7.49
2022-12-26T17:02:04.431Z,7.48
2022-12-26T17:04:31.418Z,7.50
2022-12-26T17:07:05.455Z,7.52
2022-12-26T17:09:41.576Z,7.55
2022-12-26T17:12:23.954Z,7.58
2022-12-26T17:14:52.214Z,7.59
2022-12-26T17:17:21.465Z,7.60
2022-12-26T17:19:53.737Z,7.59
2022-12-26T17:22:36.842Z,7.57
2022-12-26T17:25:23.834Z,7.54
2022-12-26T17:28:08.501Z,7.48
2022-12-26T17:30:34.975Z,7.44
2022-12-26T17:33:04.441Z,7.42
2022-12-26T17:36:13.489Z,7.38
2022-12-26T17:38:24.758Z,7.35
2022-12-26T17:40:58.509Z,7.33
2022-12-26T17:43:39.504Z,7.34
2022-12-26T17:46:08.822Z,7.30
2022-12-26T17:48:35.495Z,7.27
2022-12-26T17:51:06.205Z,7.27
2022-12-26T17:53:37.399Z,7.28
2022-12-26T17:56:05.763Z,7.31
2022-12-26T17:58:33.248Z,7.35
2022-12-26T18:01:00.875Z,7.35
2022-12-26T18:03:27.947Z,7.37
2022-12-26T18:05:56.475Z,7.35
2022-12-26T18:08:36.026Z,7.35
2022-12-26T18:11:05.823Z,7.31
2022-12-26T18:13:32.809Z,7.25
2022-12-26T18:15:59.526Z,7.28
2022-12-26T18:18:33.940Z,7.38
2022-12-26T18:21:00.735Z,7.33
2022-12-26T18:23:28.274Z,7.35
2022-12-26T18:25:57.435Z,7.51
2022-12-26T18:28:24.083Z,7.72
2022-12-26T18:30:50.615Z,7.80
2022-12-26T18:33:17.216Z,7.83
2022-12-26T18:35:44.744Z,7.88
2022-12-26T18:38:17.907Z,7.98
2022-12-26T18:40:50.172Z,8.12
2022-12-26T18:43:16.698Z,8.21
2022-12-26T18:45:43.487Z,8.21
2022-12-26T18:48:14.815Z,8.14
2022-12-26T18:50:41.591Z,8.17
2022-12-26T18:53:08.254Z,8.12
2022-12-26T18:55:34.776Z,8.12
2022-12-26T18:58:01.351Z,8.07
2022-12-26T19:00:27.885Z,8.06
2022-12-26T19:02:55.657Z,8.11
2022-12-26T19:05:31.827Z,8.25
2022-12-26T19:08:00.029Z,8.31
2022-12-26T19:10:33.288Z,8.35
2022-12-26T19:13:05.678Z,8.39
2022-12-26T19:15:34.869Z,8.40
2022-12-26T19:18:01.917Z,8.41
2022-12-26T19:20:28.501Z,8.50
2022-12-26T19:22:55.694Z,8.54
2022-12-26T19:25:23.923Z,8.58
2022-12-26T19:27:51.011Z,8.63
2022-12-26T19:30:19.511Z,8.77
2022-12-26T19:32:46.620Z,8.87
2022-12-26T19:35:14.625Z,9.05
2022-12-26T19:37:41.731Z,9.25
2022-12-26T19:40:09.828Z,9.28
2022-12-26T19:42:37.457Z,9.18
2022-12-26T19:45:08.559Z,9.03
2022-12-26T19:47:35.781Z,8.88
2022-12-26T19:50:04.332Z,8.79
2022-12-26T19:52:30.857Z,8.69
2022-12-26T19:54:57.363Z,8.60
2022-12-26T19:57:24.045Z,8.44
2022-12-26T19:59:51.355Z,8.38
2022-12-26T20:02:21.936Z,8.25
2022-12-26T20:04:48.546Z,8.19
2022-12-26T20:07:15.004Z,8.09
2022-12-26T20:09:41.553Z,8.01
2022-12-26T20:12:08.059Z,7.91
2022-12-26T20:14:34.633Z,7.86
2022-12-26T20:17:06.847Z,7.82
2022-12-26T20:19:34.778Z,7.82
2022-12-26T20:22:01.407Z,7.82
2022-12-26T20:24:27.913Z,7.79
2022-12-26T20:26:54.540Z,7.74
2022-12-26T20:29:21.096Z,7.70
2022-12-26T20:31:47.708Z,7.70
2022-12-26T20:34:14.450Z,7.68
2022-12-26T20:36:41.694Z,7.70
2022-12-26T20:39:13.109Z,7.73
2022-12-26T20:41:39.646Z,7.72
2022-12-26T20:44:06.497Z,7.72
2022-12-26T20:46:36.053Z,7.73
2022-12-26T20:49:04.835Z,7.71
2022-12-26T20:51:37.288Z,7.70
2022-12-26T20:54:06.155Z,7.69
2022-12-26T20:56:32.660Z,7.65
2022-12-26T20:58:59.865Z,7.64
2022-12-26T21:01:27.447Z,7.61
2022-12-26T21:03:54.907Z,7.60
2022-12-26T21:06:24.550Z,7.58
2022-12-26T21:08:52.901Z,7.59
2022-12-26T21:11:23.976Z,7.62
2022-12-26T21:13:54.409Z,7.66
2022-12-26T21:16:26.646Z,7.68
2022-12-26T21:18:53.804Z,7.64
2022-12-26T21:21:26.112Z,7.63
2022-12-26T21:24:04.653Z,7.61
2022-12-26T21:26:32.140Z,7.61
2022-12-26T21:29:02.466Z,7.60
2022-12-26T21:31:30.582Z,7.61
2022-12-26T21:33:58.978Z,7.62
2022-12-26T21:36:26.375Z,7.67
2022-12-26T21:38:54.104Z,7.69
2022-12-26T21:41:21.620Z,7.70
2022-12-26T21:43:48.207Z,7.67
2022-12-26T21:46:18.111Z,7.70
2022-12-26T21:48:47.470Z,7.68
2022-12-26T21:51:15.449Z,7.68
2022-12-26T21:53:42.526Z,7.67
2022-12-26T21:56:11.003Z,7.69
2022-12-26T21:58:56.639Z,7.67
2022-12-26T22:01:25.577Z,7.68
2022-12-26T22:04:11.472Z,7.68
2022-12-26T22:06:39.494Z,7.67
2022-12-26T22:09:07.139Z,7.67
2022-12-26T22:11:52.309Z,7.67
2022-12-26T22:14:18.930Z,7.66
2022-12-26T22:16:45.574Z,7.65
2022-12-26T22:19:12.207Z,7.61
2022-12-26T22:21:38.759Z,7.58
2022-12-26T22:24:05.487Z,7.55
2022-12-26T22:26:32.056Z,7.53
2022-12-26T22:28:59.287Z,7.48
2022-12-26T22:31:35.106Z,7.42
2022-12-26T22:34:07.181Z,7.37
2022-12-26T22:36:34.716Z,7.34
2022-12-26T22:39:01.400Z,7.28
2022-12-26T22:41:28.831Z,7.22
2022-12-26T22:43:56.013Z,7.17
2022-12-26T22:46:22.823Z,7.13
2022-12-26T22:48:49.614Z,7.09
2022-12-26T22:51:21.133Z,7.08
2022-12-26T22:53:47.794Z,6.99
2022-12-26T22:56:14.402Z,6.94
2022-12-26T22:58:40.936Z,6.92
2022-12-26T23:01:15.620Z,6.88
2022-12-26T23:03:42.675Z,6.84
2022-12-26T23:06:17.063Z,6.85
2022-12-26T23:08:43.955Z,6.80
2022-12-26T23:11:10.634Z,6.77
2022-12-26T23:13:37.414Z,6.74
2022-12-26T23:16:32.525Z,6.70
2022-12-26T23:19:21.526Z,6.67
2022-12-26T23:21:50.504Z,6.62
2022-12-26T23:24:21.363Z,6.59
2022-12-26T23:27:20.023Z,6.54
2022-12-26T23:30:05.387Z,6.50
2022-12-26T23:32:33.661Z,6.46
2022-12-26T23:35:00.270Z,6.41
2022-12-26T23:37:27.015Z,6.39
2022-12-26T23:39:53.524Z,6.35
2022-12-26T23:42:20.015Z,6.34
2022-12-26T23:44:46.480Z,6.32
2022-12-26T23:47:13.011Z,6.29
2022-12-26T23:49:39.496Z,6.25
2022-12-26T23:52:06.221Z,6.25
2022-12-26T23:54:32.738Z,6.21
2022-12-26T23:56:59.242Z,6.19
2022-12-26T23:59:25.869Z,6.17
